sensor_id;sensor_type;location;lat;lon;timestamp;temperature;humidity
10583;DHT22;33679;51.218;6.786;2023-07-31T00:00:56;20.40;99.90
10583;DHT22;33679;51.218;6.786;2023-07-31T00:03:31;20.30;99.90
10583;DHT22;33679;51.218;6.786;2023-07-31T00:06:06;20.30;99.90
10583;DHT22;33679;51.218;6.786;2023-07-31T00:08:40;20.30;99.90
10583;DHT22;33679;51.218;6.786;2023-07-31T00:11:15;20.30;99.90
10583;DHT22;33679;51.218;6.786;2023-07-31T00:13:47;20.30;99.90
10583;DHT22;33679;51.218;6.786;2023-07-31T00:16:20;20.20;99.90
10583;DHT22;33679;51.218;6.786;2023-07-31T00:18:52;20.20;99.90
10583;DHT22;33679;51.218;6.786;2023-07-31T00:21:27;20.30;99.90
10583;DHT22;33679;51.218;6.786;2023-07-31T00:24:00;20.30;99.90
10583;DHT22;33679;51.218;6.786;2023-07-31T00:26:32;20.30;99.90
10583;DHT22;33679;51.218;6.786;2023-07-31T00:29:07;20.40;99.90
10583;DHT22;33679;51.218;6.786;2023-07-31T00:31:39;20.40;99.90
10583;DHT22;33679;51.218;6.786;2023-07-31T00:34:12;20.40;99.90
10583;DHT22;33679;51.218;6.786;2023-07-31T00:36:44;20.40;99.90
10583;DHT22;33679;51.218;6.786;2023-07-31T00:39:18;20.40;99.90
10583;DHT22;33679;51.218;6.786;2023-07-31T00:41:51;20.40;99.90
10583;DHT22;33679;51.218;6.786;2023-07-31T00:44:23;20.40;99.90
10583;DHT22;33679;51.218;6.786;2023-07-31T00:46:56;20.40;99.90
10583;DHT22;33679;51.218;6.786;2023-07-31T00:49:29;20.40;99.90
10583;DHT22;33679;51.218;6.786;2023-07-31T00:52:02;20.40;99.90
10583;DHT22;33679;51.218;6.786;2023-07-31T00:54:35;20.40;99.90
10583;DHT22;33679;51.218;6.786;2023-07-31T00:57:11;20.30;99.90
10583;DHT22;33679;51.218;6.786;2023-07-31T00:59:45;20.30;99.90
10583;DHT22;33679;51.218;6.786;2023-07-31T01:02:17;20.30;99.90
10583;DHT22;33679;51.218;6.786;2023-07-31T01:04:50;20.40;99.90
10583;DHT22;33679;51.218;6.786;2023-07-31T01:07:27;20.40;99.90
10583;DHT22;33679;51.218;6.786;2023-07-31T01:10:10;20.30;99.90
10583;DHT22;33679;51.218;6.786;2023-07-31T01:12:46;20.40;99.90
10583;DHT22;33679;51.218;6.786;2023-07-31T01:15:21;20.40;99.90
10583;DHT22;33679;51.218;6.786;2023-07-31T01:17:53;20.40;99.90
10583;DHT22;33679;51.218;6.786;2023-07-31T01:20:26;20.40;99.90
10583;DHT22;33679;51.218;6.786;2023-07-31T01:23:33;20.40;99.90
10583;DHT22;33679;51.218;6.786;2023-07-31T01:26:11;20.40;99.90
10583;DHT22;33679;51.218;6.786;2023-07-31T01:28:52;20.40;99.90
10583;DHT22;33679;51.218;6.786;2023-07-31T01:31:29;20.40;99.90
10583;DHT22;33679;51.218;6.786;2023-07-31T01:34:03;20.40;99.90
10583;DHT22;33679;51.218;6.786;2023-07-31T01:36:36;20.40;99.90
10583;DHT22;33679;51.218;6.786;2023-07-31T01:39:08;20.40;99.90
10583;DHT22;33679;51.218;6.786;2023-07-31T01:41:42;20.40;99.90
10583;DHT22;33679;51.218;6.786;2023-07-31T01:44:15;20.30;99.90
10583;DHT22;33679;51.218;6.786;2023-07-31T01:46:48;20.20;99.90
10583;DHT22;33679;51.218;6.786;2023-07-31T01:49:23;20.20;99.90
10583;DHT22;33679;51.218;6.786;2023-07-31T01:51:55;20.20;99.90
10583;DHT22;33679;51.218;6.786;2023-07-31T01:54:28;20.20;99.90
10583;DHT22;33679;51.218;6.786;2023-07-31T01:57:03;20.20;99.90
10583;DHT22;33679;51.218;6.786;2023-07-31T01:59:35;20.20;99.90
10583;DHT22;33679;51.218;6.786;2023-07-31T02:02:07;20.20;99.90
10583;DHT22;33679;51.218;6.786;2023-07-31T02:04:42;20.20;99.90
10583;DHT22;33679;51.218;6.786;2023-07-31T02:07:14;20.30;99.90
10583;DHT22;33679;51.218;6.786;2023-07-31T02:09:47;20.30;99.90
10583;DHT22;33679;51.218;6.786;2023-07-31T02:12:21;20.30;99.90
10583;DHT22;33679;51.218;6.786;2023-07-31T02:14:54;20.30;99.90
10583;DHT22;33679;51.218;6.786;2023-07-31T02:17:27;20.30;99.90
10583;DHT22;33679;51.218;6.786;2023-07-31T02:20:00;20.30;99.90
10583;DHT22;33679;51.218;6.786;2023-07-31T02:22:32;20.30;99.90
10583;DHT22;33679;51.218;6.786;2023-07-31T02:25:05;20.40;99.90
10583;DHT22;33679;51.218;6.786;2023-07-31T02:27:39;20.40;99.90
10583;DHT22;33679;51.218;6.786;2023-07-31T02:30:15;20.50;99.90
10583;DHT22;33679;51.218;6.786;2023-07-31T02:32:47;20.50;99.90
10583;DHT22;33679;51.218;6.786;2023-07-31T02:35:19;20.50;99.90
10583;DHT22;33679;51.218;6.786;2023-07-31T02:37:51;20.40;99.90
10583;DHT22;33679;51.218;6.786;2023-07-31T02:40:24;20.50;99.90
10583;DHT22;33679;51.218;6.786;2023-07-31T02:42:58;20.50;99.90
10583;DHT22;33679;51.218;6.786;2023-07-31T02:45:31;20.50;99.90
10583;DHT22;33679;51.218;6.786;2023-07-31T02:48:03;20.50;99.90
10583;DHT22;33679;51.218;6.786;2023-07-31T02:50:36;20.60;99.90
10583;DHT22;33679;51.218;6.786;2023-07-31T02:53:08;20.60;99.90
10583;DHT22;33679;51.218;6.786;2023-07-31T02:55:41;20.70;99.90
10583;DHT22;33679;51.218;6.786;2023-07-31T02:58:16;20.70;99.90
10583;DHT22;33679;51.218;6.786;2023-07-31T03:00:49;20.70;99.90
10583;DHT22;33679;51.218;6.786;2023-07-31T03:03:21;20.70;99.90
10583;DHT22;33679;51.218;6.786;2023-07-31T03:05:55;20.70;99.90
10583;DHT22;33679;51.218;6.786;2023-07-31T03:08:28;20.70;99.90
10583;DHT22;33679;51.218;6.786;2023-07-31T03:11:01;20.80;99.90
10583;DHT22;33679;51.218;6.786;2023-07-31T03:13:37;20.80;99.90
10583;DHT22;33679;51.218;6.786;2023-07-31T03:16:10;20.80;99.90
10583;DHT22;33679;51.218;6.786;2023-07-31T03:18:42;20.80;99.90
10583;DHT22;33679;51.218;6.786;2023-07-31T03:21:15;20.80;99.90
10583;DHT22;33679;51.218;6.786;2023-07-31T03:23:47;20.80;99.90
10583;DHT22;33679;51.218;6.786;2023-07-31T03:26:19;20.80;99.90
10583;DHT22;33679;51.218;6.786;2023-07-31T03:28:53;20.80;99.90
10583;DHT22;33679;51.218;6.786;2023-07-31T03:31:25;20.80;99.90
10583;DHT22;33679;51.218;6.786;2023-07-31T03:33:59;20.80;99.90
10583;DHT22;33679;51.218;6.786;2023-07-31T03:36:32;20.80;99.90
10583;DHT22;33679;51.218;6.786;2023-07-31T03:39:06;20.80;99.90
10583;DHT22;33679;51.218;6.786;2023-07-31T03:41:39;20.80;99.90
10583;DHT22;33679;51.218;6.786;2023-07-31T03:44:13;20.80;99.90
10583;DHT22;33679;51.218;6.786;2023-07-31T03:46:45;20.80;99.90
10583;DHT22;33679;51.218;6.786;2023-07-31T03:49:17;20.80;99.90
10583;DHT22;33679;51.218;6.786;2023-07-31T03:51:51;20.80;99.90
10583;DHT22;33679;51.218;6.786;2023-07-31T03:54:23;20.80;99.90
10583;DHT22;33679;51.218;6.786;2023-07-31T03:56:55;20.90;99.90
10583;DHT22;33679;51.218;6.786;2023-07-31T03:59:29;20.90;99.90
10583;DHT22;33679;51.218;6.786;2023-07-31T04:02:01;20.90;99.90
10583;DHT22;33679;51.218;6.786;2023-07-31T04:04:33;20.90;99.90
10583;DHT22;33679;51.218;6.786;2023-07-31T04:07:06;20.90;99.90
10583;DHT22;33679;51.218;6.786;2023-07-31T04:09:39;20.90;99.90
10583;DHT22;33679;51.218;6.786;2023-07-31T04:12:12;20.90;99.90
10583;DHT22;33679;51.218;6.786;2023-07-31T04:14:45;20.90;99.90
10583;DHT22;33679;51.218;6.786;2023-07-31T04:17:17;20.90;99.90
10583;DHT22;33679;51.218;6.786;2023-07-31T04:19:50;21.00;99.90
10583;DHT22;33679;51.218;6.786;2023-07-31T04:22:22;21.10;99.90
10583;DHT22;33679;51.218;6.786;2023-07-31T04:24:55;21.10;99.90
10583;DHT22;33679;51.218;6.786;2023-07-31T04:27:27;21.10;99.90
10583;DHT22;33679;51.218;6.786;2023-07-31T04:30:01;21.10;99.90
10583;DHT22;33679;51.218;6.786;2023-07-31T04:32:33;21.10;99.90
10583;DHT22;33679;51.218;6.786;2023-07-31T04:35:06;21.10;99.90
10583;DHT22;33679;51.218;6.786;2023-07-31T04:37:41;21.10;99.90
10583;DHT22;33679;51.218;6.786;2023-07-31T04:40:13;21.10;99.90
10583;DHT22;33679;51.218;6.786;2023-07-31T04:42:45;21.20;99.90
10583;DHT22;33679;51.218;6.786;2023-07-31T04:45:19;21.20;99.90
10583;DHT22;33679;51.218;6.786;2023-07-31T04:47:54;21.30;99.90
10583;DHT22;33679;51.218;6.786;2023-07-31T04:50:26;21.30;99.90
10583;DHT22;33679;51.218;6.786;2023-07-31T04:52:58;21.40;99.90
10583;DHT22;33679;51.218;6.786;2023-07-31T04:55:31;21.40;99.90
10583;DHT22;33679;51.218;6.786;2023-07-31T04:58:03;21.40;99.90
10583;DHT22;33679;51.218;6.786;2023-07-31T05:00:39;21.50;99.90
10583;DHT22;33679;51.218;6.786;2023-07-31T05:03:11;21.50;99.90
10583;DHT22;33679;51.218;6.786;2023-07-31T05:05:43;21.50;99.90
10583;DHT22;33679;51.218;6.786;2023-07-31T05:08:15;21.50;99.90
10583;DHT22;33679;51.218;6.786;2023-07-31T05:10:48;21.60;99.90
10583;DHT22;33679;51.218;6.786;2023-07-31T05:13:20;21.70;99.90
10583;DHT22;33679;51.218;6.786;2023-07-31T05:15:54;21.80;99.90
10583;DHT22;33679;51.218;6.786;2023-07-31T05:18:26;21.80;99.90
10583;DHT22;33679;51.218;6.786;2023-07-31T05:20:59;21.80;99.90
10583;DHT22;33679;51.218;6.786;2023-07-31T05:23:31;21.90;99.90
10583;DHT22;33679;51.218;6.786;2023-07-31T05:26:04;21.80;99.90
10583;DHT22;33679;51.218;6.786;2023-07-31T05:28:38;21.80;99.90
10583;DHT22;33679;51.218;6.786;2023-07-31T05:31:12;21.80;99.90
10583;DHT22;33679;51.218;6.786;2023-07-31T05:33:45;21.80;99.90
10583;DHT22;33679;51.218;6.786;2023-07-31T05:36:19;21.80;99.90
10583;DHT22;33679;51.218;6.786;2023-07-31T05:38:51;21.80;99.90
10583;DHT22;33679;51.218;6.786;2023-07-31T05:41:23;21.80;99.90
10583;DHT22;33679;51.218;6.786;2023-07-31T05:43:57;21.80;99.90
10583;DHT22;33679;51.218;6.786;2023-07-31T05:46:32;21.80;99.90
10583;DHT22;33679;51.218;6.786;2023-07-31T05:49:04;21.80;99.90
10583;DHT22;33679;51.218;6.786;2023-07-31T05:51:39;21.80;99.90
10583;DHT22;33679;51.218;6.786;2023-07-31T05:54:11;21.80;99.90
10583;DHT22;33679;51.218;6.786;2023-07-31T05:56:43;21.90;99.90
10583;DHT22;33679;51.218;6.786;2023-07-31T05:59:16;21.90;99.90
10583;DHT22;33679;51.218;6.786;2023-07-31T06:01:50;21.90;99.90
10583;DHT22;33679;51.218;6.786;2023-07-31T06:04:22;21.90;99.90
10583;DHT22;33679;51.218;6.786;2023-07-31T06:06:56;21.90;99.90
10583;DHT22;33679;51.218;6.786;2023-07-31T06:09:28;21.90;99.90
10583;DHT22;33679;51.218;6.786;2023-07-31T06:12:00;21.90;99.90
10583;DHT22;33679;51.218;6.786;2023-07-31T06:14:33;21.90;99.90
10583;DHT22;33679;51.218;6.786;2023-07-31T06:17:07;21.80;99.90
10583;DHT22;33679;51.218;6.786;2023-07-31T06:19:39;21.70;99.90
10583;DHT22;33679;51.218;6.786;2023-07-31T06:22:12;21.70;99.90
10583;DHT22;33679;51.218;6.786;2023-07-31T06:24:44;21.70;99.90
10583;DHT22;33679;51.218;6.786;2023-07-31T06:27:16;21.70;99.90
10583;DHT22;33679;51.218;6.786;2023-07-31T06:29:49;21.70;99.90
10583;DHT22;33679;51.218;6.786;2023-07-31T06:32:23;21.70;99.90
10583;DHT22;33679;51.218;6.786;2023-07-31T06:34:57;21.70;99.90
10583;DHT22;33679;51.218;6.786;2023-07-31T06:37:30;21.70;99.90
10583;DHT22;33679;51.218;6.786;2023-07-31T06:40:03;21.80;99.90
10583;DHT22;33679;51.218;6.786;2023-07-31T06:42:36;21.80;99.90
10583;DHT22;33679;51.218;6.786;2023-07-31T06:45:10;21.80;99.90
10583;DHT22;33679;51.218;6.786;2023-07-31T06:47:43;21.80;99.90
10583;DHT22;33679;51.218;6.786;2023-07-31T06:50:18;21.80;99.90
10583;DHT22;33679;51.218;6.786;2023-07-31T06:52:50;21.70;99.90
10583;DHT22;33679;51.218;6.786;2023-07-31T06:55:23;21.60;99.90
10583;DHT22;33679;51.218;6.786;2023-07-31T06:57:56;21.60;99.90
10583;DHT22;33679;51.218;6.786;2023-07-31T07:00:28;21.60;99.90
10583;DHT22;33679;51.218;6.786;2023-07-31T07:03:02;21.60;99.90
10583;DHT22;33679;51.218;6.786;2023-07-31T07:05:34;21.60;99.90
10583;DHT22;33679;51.218;6.786;2023-07-31T07:08:06;21.60;99.90
10583;DHT22;33679;51.218;6.786;2023-07-31T07:10:39;21.60;99.90
10583;DHT22;33679;51.218;6.786;2023-07-31T07:13:11;21.60;99.90
10583;DHT22;33679;51.218;6.786;2023-07-31T07:15:48;21.60;99.90
10583;DHT22;33679;51.218;6.786;2023-07-31T07:18:21;21.50;99.90
10583;DHT22;33679;51.218;6.786;2023-07-31T07:20:54;21.50;99.90
10583;DHT22;33679;51.218;6.786;2023-07-31T07:23:28;21.50;99.90
10583;DHT22;33679;51.218;6.786;2023-07-31T07:26:00;21.50;99.90
10583;DHT22;33679;51.218;6.786;2023-07-31T07:28:33;21.50;99.90
10583;DHT22;33679;51.218;6.786;2023-07-31T07:31:08;21.50;99.90
10583;DHT22;33679;51.218;6.786;2023-07-31T07:33:41;21.50;99.90
10583;DHT22;33679;51.218;6.786;2023-07-31T07:36:16;21.50;99.90
10583;DHT22;33679;51.218;6.786;2023-07-31T07:38:48;21.50;99.90
10583;DHT22;33679;51.218;6.786;2023-07-31T07:41:21;21.40;99.90
10583;DHT22;33679;51.218;6.786;2023-07-31T07:43:53;21.40;99.90
10583;DHT22;33679;51.218;6.786;2023-07-31T07:46:25;21.40;99.90
10583;DHT22;33679;51.218;6.786;2023-07-31T07:48:59;21.40;99.90
10583;DHT22;33679;51.218;6.786;2023-07-31T07:51:32;21.40;99.90
10583;DHT22;33679;51.218;6.786;2023-07-31T07:54:04;21.40;99.90
10583;DHT22;33679;51.218;6.786;2023-07-31T07:56:37;21.40;99.90
10583;DHT22;33679;51.218;6.786;2023-07-31T07:59:09;21.40;99.90
10583;DHT22;33679;51.218;6.786;2023-07-31T08:01:41;21.40;99.90
10583;DHT22;33679;51.218;6.786;2023-07-31T08:04:15;21.40;99.90
10583;DHT22;33679;51.218;6.786;2023-07-31T08:06:50;21.50;99.90
10583;DHT22;33679;51.218;6.786;2023-07-31T08:09:23;21.50;99.90
10583;DHT22;33679;51.218;6.786;2023-07-31T08:11:55;21.40;99.90
10583;DHT22;33679;51.218;6.786;2023-07-31T08:14:35;21.40;99.90
10583;DHT22;33679;51.218;6.786;2023-07-31T08:17:07;21.30;99.90
10583;DHT22;33679;51.218;6.786;2023-07-31T08:19:41;21.30;99.90
10583;DHT22;33679;51.218;6.786;2023-07-31T08:22:14;21.30;99.90
10583;DHT22;33679;51.218;6.786;2023-07-31T08:24:47;21.30;99.90
10583;DHT22;33679;51.218;6.786;2023-07-31T08:27:22;21.40;99.90
10583;DHT22;33679;51.218;6.786;2023-07-31T08:29:54;21.40;99.90
10583;DHT22;33679;51.218;6.786;2023-07-31T08:32:27;21.50;99.90
10583;DHT22;33679;51.218;6.786;2023-07-31T08:35:00;21.50;99.90
10583;DHT22;33679;51.218;6.786;2023-07-31T08:37:33;21.50;99.90
10583;DHT22;33679;51.218;6.786;2023-07-31T08:40:07;21.60;99.90
10583;DHT22;33679;51.218;6.786;2023-07-31T08:42:49;21.60;99.90
10583;DHT22;33679;51.218;6.786;2023-07-31T08:45:22;21.60;99.90
10583;DHT22;33679;51.218;6.786;2023-07-31T08:47:56;21.50;99.90
10583;DHT22;33679;51.218;6.786;2023-07-31T08:50:32;21.60;99.90
10583;DHT22;33679;51.218;6.786;2023-07-31T08:53:04;21.60;99.90
10583;DHT22;33679;51.218;6.786;2023-07-31T08:55:38;21.60;99.90
10583;DHT22;33679;51.218;6.786;2023-07-31T08:58:13;21.50;99.90
10583;DHT22;33679;51.218;6.786;2023-07-31T09:00:46;21.60;99.90
10583;DHT22;33679;51.218;6.786;2023-07-31T09:03:18;21.60;99.90
10583;DHT22;33679;51.218;6.786;2023-07-31T09:05:53;21.60;99.90
10583;DHT22;33679;51.218;6.786;2023-07-31T09:08:30;21.60;99.90
10583;DHT22;33679;51.218;6.786;2023-07-31T09:11:02;21.50;99.90
10583;DHT22;33679;51.218;6.786;2023-07-31T09:13:37;21.50;99.90
10583;DHT22;33679;51.218;6.786;2023-07-31T09:16:11;21.50;99.90
10583;DHT22;33679;51.218;6.786;2023-07-31T09:18:53;21.50;99.90
10583;DHT22;33679;51.218;6.786;2023-07-31T09:21:29;21.50;99.90
10583;DHT22;33679;51.218;6.786;2023-07-31T09:24:01;21.50;99.90
10583;DHT22;33679;51.218;6.786;2023-07-31T09:26:37;21.50;99.90
10583;DHT22;33679;51.218;6.786;2023-07-31T09:29:19;21.60;99.90
10583;DHT22;33679;51.218;6.786;2023-07-31T09:31:52;21.60;99.90
10583;DHT22;33679;51.218;6.786;2023-07-31T09:34:30;21.60;99.90
10583;DHT22;33679;51.218;6.786;2023-07-31T09:37:05;21.60;99.90
10583;DHT22;33679;51.218;6.786;2023-07-31T09:39:46;21.50;99.90
10583;DHT22;33679;51.218;6.786;2023-07-31T09:42:25;21.60;99.90
10583;DHT22;33679;51.218;6.786;2023-07-31T09:45:08;21.70;99.90
10583;DHT22;33679;51.218;6.786;2023-07-31T09:47:46;21.60;99.90
10583;DHT22;33679;51.218;6.786;2023-07-31T09:50:20;21.60;99.90
10583;DHT22;33679;51.218;6.786;2023-07-31T09:52:54;21.60;99.90
10583;DHT22;33679;51.218;6.786;2023-07-31T09:55:27;21.70;99.90
10583;DHT22;33679;51.218;6.786;2023-07-31T09:58:04;21.80;99.90
10583;DHT22;33679;51.218;6.786;2023-07-31T10:00:37;21.80;99.90
10583;DHT22;33679;51.218;6.786;2023-07-31T10:03:11;21.80;99.90
10583;DHT22;33679;51.218;6.786;2023-07-31T10:05:47;21.80;99.90
10583;DHT22;33679;51.218;6.786;2023-07-31T10:08:26;21.80;99.90
10583;DHT22;33679;51.218;6.786;2023-07-31T10:11:02;21.80;99.90
10583;DHT22;33679;51.218;6.786;2023-07-31T10:13:36;21.80;99.90
10583;DHT22;33679;51.218;6.786;2023-07-31T10:16:10;21.70;99.90
10583;DHT22;33679;51.218;6.786;2023-07-31T10:18:45;21.80;99.90
10583;DHT22;33679;51.218;6.786;2023-07-31T10:21:19;21.70;99.90
10583;DHT22;33679;51.218;6.786;2023-07-31T10:23:56;21.60;99.90
10583;DHT22;33679;51.218;6.786;2023-07-31T10:26:29;21.60;99.90
10583;DHT22;33679;51.218;6.786;2023-07-31T10:29:02;21.60;99.90
10583;DHT22;33679;51.218;6.786;2023-07-31T10:31:35;21.60;99.90
10583;DHT22;33679;51.218;6.786;2023-07-31T10:34:08;21.60;99.90
10583;DHT22;33679;51.218;6.786;2023-07-31T10:36:42;21.70;99.90
10583;DHT22;33679;51.218;6.786;2023-07-31T10:39:39;21.80;99.90
10583;DHT22;33679;51.218;6.786;2023-07-31T10:42:12;21.90;99.90
10583;DHT22;33679;51.218;6.786;2023-07-31T10:44:46;22.00;99.90
10583;DHT22;33679;51.218;6.786;2023-07-31T10:47:19;22.00;99.90
10583;DHT22;33679;51.218;6.786;2023-07-31T10:49:51;22.10;99.90
10583;DHT22;33679;51.218;6.786;2023-07-31T10:52:34;22.10;99.90
10583;DHT22;33679;51.218;6.786;2023-07-31T10:55:16;22.30;99.90
10583;DHT22;33679;51.218;6.786;2023-07-31T10:58:07;22.40;99.90
10583;DHT22;33679;51.218;6.786;2023-07-31T11:00:41;22.50;99.90
10583;DHT22;33679;51.218;6.786;2023-07-31T11:03:15;22.50;99.90
10583;DHT22;33679;51.218;6.786;2023-07-31T11:05:52;22.40;99.90
10583;DHT22;33679;51.218;6.786;2023-07-31T11:08:29;22.30;99.90
10583;DHT22;33679;51.218;6.786;2023-07-31T11:11:08;22.20;99.90
10583;DHT22;33679;51.218;6.786;2023-07-31T11:13:42;22.30;99.90
10583;DHT22;33679;51.218;6.786;2023-07-31T11:16:16;22.30;99.90
10583;DHT22;33679;51.218;6.786;2023-07-31T11:18:49;22.20;99.90
10583;DHT22;33679;51.218;6.786;2023-07-31T11:21:24;22.20;99.90
10583;DHT22;33679;51.218;6.786;2023-07-31T11:23:57;22.20;99.90
10583;DHT22;33679;51.218;6.786;2023-07-31T11:26:31;22.20;99.90
10583;DHT22;33679;51.218;6.786;2023-07-31T11:29:11;22.30;99.90
10583;DHT22;33679;51.218;6.786;2023-07-31T11:31:43;22.30;99.90
10583;DHT22;33679;51.218;6.786;2023-07-31T11:34:15;22.40;99.90
10583;DHT22;33679;51.218;6.786;2023-07-31T11:36:54;22.40;99.90
10583;DHT22;33679;51.218;6.786;2023-07-31T11:39:27;22.40;99.90
10583;DHT22;33679;51.218;6.786;2023-07-31T11:42:01;22.30;99.90
10583;DHT22;33679;51.218;6.786;2023-07-31T11:44:38;22.40;99.90
10583;DHT22;33679;51.218;6.786;2023-07-31T11:47:11;22.50;99.90
10583;DHT22;33679;51.218;6.786;2023-07-31T11:49:44;22.50;99.90
10583;DHT22;33679;51.218;6.786;2023-07-31T11:52:22;22.60;99.90
10583;DHT22;33679;51.218;6.786;2023-07-31T11:54:55;22.50;99.90
10583;DHT22;33679;51.218;6.786;2023-07-31T11:57:29;22.40;99.90
10583;DHT22;33679;51.218;6.786;2023-07-31T12:00:02;22.40;99.90
10583;DHT22;33679;51.218;6.786;2023-07-31T12:02:35;22.50;99.90
10583;DHT22;33679;51.218;6.786;2023-07-31T12:05:12;22.40;99.90
10583;DHT22;33679;51.218;6.786;2023-07-31T12:07:50;22.40;99.90
10583;DHT22;33679;51.218;6.786;2023-07-31T12:10:27;22.40;99.90
10583;DHT22;33679;51.218;6.786;2023-07-31T12:13:04;22.40;99.90
10583;DHT22;33679;51.218;6.786;2023-07-31T12:15:41;22.30;99.90
10583;DHT22;33679;51.218;6.786;2023-07-31T12:18:15;22.30;99.90
10583;DHT22;33679;51.218;6.786;2023-07-31T12:20:49;22.30;99.90
10583;DHT22;33679;51.218;6.786;2023-07-31T12:23:27;22.30;99.90
10583;DHT22;33679;51.218;6.786;2023-07-31T12:26:03;22.30;99.90
10583;DHT22;33679;51.218;6.786;2023-07-31T12:28:41;22.40;99.90
10583;DHT22;33679;51.218;6.786;2023-07-31T12:31:15;22.40;99.90
10583;DHT22;33679;51.218;6.786;2023-07-31T12:33:49;22.50;99.90
10583;DHT22;33679;51.218;6.786;2023-07-31T12:36:24;22.50;99.90
10583;DHT22;33679;51.218;6.786;2023-07-31T12:38:56;22.50;99.90
10583;DHT22;33679;51.218;6.786;2023-07-31T12:41:31;22.50;99.90
10583;DHT22;33679;51.218;6.786;2023-07-31T12:44:05;22.50;99.90
10583;DHT22;33679;51.218;6.786;2023-07-31T12:46:38;22.50;99.90
10583;DHT22;33679;51.218;6.786;2023-07-31T12:49:10;22.50;99.90
10583;DHT22;33679;51.218;6.786;2023-07-31T12:51:43;22.60;99.90
10583;DHT22;33679;51.218;6.786;2023-07-31T12:54:15;22.60;99.90
10583;DHT22;33679;51.218;6.786;2023-07-31T12:56:47;22.60;99.90
10583;DHT22;33679;51.218;6.786;2023-07-31T12:59:21;22.80;99.90
10583;DHT22;33679;51.218;6.786;2023-07-31T13:01:56;22.90;99.90
10583;DHT22;33679;51.218;6.786;2023-07-31T13:04:28;23.00;99.90
10583;DHT22;33679;51.218;6.786;2023-07-31T13:07:00;23.10;99.90
10583;DHT22;33679;51.218;6.786;2023-07-31T13:09:33;23.20;99.90
10583;DHT22;33679;51.218;6.786;2023-07-31T13:12:06;23.30;99.90
10583;DHT22;33679;51.218;6.786;2023-07-31T13:14:40;23.40;99.90
10583;DHT22;33679;51.218;6.786;2023-07-31T13:17:13;23.40;99.90
10583;DHT22;33679;51.218;6.786;2023-07-31T13:19:45;23.40;99.90
10583;DHT22;33679;51.218;6.786;2023-07-31T13:22:17;23.30;99.90
10583;DHT22;33679;51.218;6.786;2023-07-31T13:24:49;23.30;99.90
10583;DHT22;33679;51.218;6.786;2023-07-31T13:27:21;23.30;99.90
10583;DHT22;33679;51.218;6.786;2023-07-31T13:29:56;23.30;99.90
10583;DHT22;33679;51.218;6.786;2023-07-31T13:32:30;23.20;99.90
10583;DHT22;33679;51.218;6.786;2023-07-31T13:35:02;23.10;99.90
10583;DHT22;33679;51.218;6.786;2023-07-31T13:37:35;23.20;99.90
10583;DHT22;33679;51.218;6.786;2023-07-31T13:40:08;23.20;99.90
10583;DHT22;33679;51.218;6.786;2023-07-31T13:42:41;23.30;99.90
10583;DHT22;33679;51.218;6.786;2023-07-31T13:45:15;23.50;99.90
10583;DHT22;33679;51.218;6.786;2023-07-31T13:47:51;23.60;99.90
10583;DHT22;33679;51.218;6.786;2023-07-31T13:50:23;23.80;99.90
10583;DHT22;33679;51.218;6.786;2023-07-31T13:52:58;23.90;99.90
10583;DHT22;33679;51.218;6.786;2023-07-31T13:55:30;23.90;99.90
10583;DHT22;33679;51.218;6.786;2023-07-31T13:57:59;24.00;99.90
10583;DHT22;33679;51.218;6.786;2023-07-31T14:00:34;24.00;99.90
10583;DHT22;33679;51.218;6.786;2023-07-31T14:03:07;24.10;99.90
10583;DHT22;33679;51.218;6.786;2023-07-31T14:05:40;24.00;99.90
10583;DHT22;33679;51.218;6.786;2023-07-31T14:08:13;24.00;99.90
10583;DHT22;33679;51.218;6.786;2023-07-31T14:10:49;23.90;99.90
10583;DHT22;33679;51.218;6.786;2023-07-31T14:13:22;23.80;99.90
10583;DHT22;33679;51.218;6.786;2023-07-31T14:15:56;23.70;99.90
10583;DHT22;33679;51.218;6.786;2023-07-31T14:18:28;23.70;99.90
10583;DHT22;33679;51.218;6.786;2023-07-31T14:21:01;23.70;99.90
10583;DHT22;33679;51.218;6.786;2023-07-31T14:23:34;23.60;99.90
10583;DHT22;33679;51.218;6.786;2023-07-31T14:26:06;23.60;99.90
10583;DHT22;33679;51.218;6.786;2023-07-31T14:28:39;23.50;99.90
10583;DHT22;33679;51.218;6.786;2023-07-31T14:31:13;23.40;99.90
10583;DHT22;33679;51.218;6.786;2023-07-31T14:33:45;23.40;99.90
10583;DHT22;33679;51.218;6.786;2023-07-31T14:36:17;23.30;99.90
10583;DHT22;33679;51.218;6.786;2023-07-31T14:38:49;23.30;99.90
10583;DHT22;33679;51.218;6.786;2023-07-31T14:41:22;23.30;99.90
10583;DHT22;33679;51.218;6.786;2023-07-31T14:43:54;23.20;99.90
10583;DHT22;33679;51.218;6.786;2023-07-31T14:46:27;23.10;99.90
10583;DHT22;33679;51.218;6.786;2023-07-31T14:49:00;23.00;99.90
10583;DHT22;33679;51.218;6.786;2023-07-31T14:51:37;23.00;99.90
10583;DHT22;33679;51.218;6.786;2023-07-31T14:54:11;23.00;99.90
10583;DHT22;33679;51.218;6.786;2023-07-31T14:56:44;23.00;99.90
10583;DHT22;33679;51.218;6.786;2023-07-31T14:59:17;23.00;99.90
10583;DHT22;33679;51.218;6.786;2023-07-31T15:01:50;23.00;99.90
10583;DHT22;33679;51.218;6.786;2023-07-31T15:04:23;23.00;99.90
10583;DHT22;33679;51.218;6.786;2023-07-31T15:06:55;23.10;99.90
10583;DHT22;33679;51.218;6.786;2023-07-31T15:09:28;23.10;99.90
10583;DHT22;33679;51.218;6.786;2023-07-31T15:12:03;23.10;99.90
10583;DHT22;33679;51.218;6.786;2023-07-31T15:14:35;23.10;99.90
10583;DHT22;33679;51.218;6.786;2023-07-31T15:17:09;23.10;99.90
10583;DHT22;33679;51.218;6.786;2023-07-31T15:19:41;23.10;99.90
10583;DHT22;33679;51.218;6.786;2023-07-31T15:22:14;23.00;99.90
10583;DHT22;33679;51.218;6.786;2023-07-31T15:24:46;23.00;99.90
10583;DHT22;33679;51.218;6.786;2023-07-31T15:27:19;23.00;99.90
10583;DHT22;33679;51.218;6.786;2023-07-31T15:29:51;23.00;99.90
10583;DHT22;33679;51.218;6.786;2023-07-31T15:32:25;23.00;99.90
10583;DHT22;33679;51.218;6.786;2023-07-31T15:34:58;23.00;99.90
10583;DHT22;33679;51.218;6.786;2023-07-31T15:37:31;23.10;99.90
10583;DHT22;33679;51.218;6.786;2023-07-31T15:40:04;23.10;99.90
10583;DHT22;33679;51.218;6.786;2023-07-31T15:42:36;23.20;99.90
10583;DHT22;33679;51.218;6.786;2023-07-31T15:45:10;23.20;99.90
10583;DHT22;33679;51.218;6.786;2023-07-31T15:47:44;23.20;99.90
10583;DHT22;33679;51.218;6.786;2023-07-31T15:50:17;23.20;99.90
10583;DHT22;33679;51.218;6.786;2023-07-31T15:52:49;23.20;99.90
10583;DHT22;33679;51.218;6.786;2023-07-31T15:55:21;23.20;99.90
10583;DHT22;33679;51.218;6.786;2023-07-31T15:57:55;23.20;99.90
10583;DHT22;33679;51.218;6.786;2023-07-31T16:00:30;23.20;99.90
10583;DHT22;33679;51.218;6.786;2023-07-31T16:03:04;23.10;99.90
10583;DHT22;33679;51.218;6.786;2023-07-31T16:05:36;23.00;99.90
10583;DHT22;33679;51.218;6.786;2023-07-31T16:08:09;23.00;99.90
10583;DHT22;33679;51.218;6.786;2023-07-31T16:10:41;22.90;99.90